sensor_id;sensor_type;location;lat;lon;timestamp;pressure;altitude;pressure_sealevel;temperature;humidity
72438;BME280;60444;43.534;-5.674;2024-03-06T00:02:05;102367.81;;;11.73;100.00
72438;BME280;60444;43.534;-5.674;2024-03-06T00:04:30;102375.03;;;11.72;100.00
72438;BME280;60444;43.534;-5.674;2024-03-06T00:06:56;102371.47;;;11.70;100.00
72438;BME280;60444;43.534;-5.674;2024-03-06T00:09:23;102371.47;;;11.70;100.00
72438;BME280;60444;43.534;-5.674;2024-03-06T00:11:49;102341.31;;;11.50;100.00
72438;BME280;60444;43.534;-5.674;2024-03-06T00:14:16;102364.53;;;11.60;100.00
72438;BME280;60444;43.534;-5.674;2024-03-06T00:16:42;102364.47;;;11.62;100.00
72438;BME280;60444;43.534;-5.674;2024-03-06T00:19:08;102370.00;;;11.59;100.00
72438;BME280;60444;43.534;-5.674;2024-03-06T00:21:35;102368.16;;;11.59;100.00
72438;BME280;60444;43.534;-5.674;2024-03-06T00:24:02;102374.63;;;11.55;100.00
72438;BME280;60444;43.534;-5.674;2024-03-06T00:26:30;102365.53;;;11.56;100.00
72438;BME280;60444;43.534;-5.674;2024-03-06T00:28:55;102360.31;;;11.48;100.00
72438;BME280;60444;43.534;-5.674;2024-03-06T00:31:21;102360.41;;;11.45;100.00
72438;BME280;60444;43.534;-5.674;2024-03-06T00:33:47;102363.84;;;11.52;100.00
72438;BME280;60444;43.534;-5.674;2024-03-06T00:36:12;102370.06;;;11.56;100.00
72438;BME280;60444;43.534;-5.674;2024-03-06T00:38:38;102365.59;;;11.55;100.00
72438;BME280;60444;43.534;-5.674;2024-03-06T00:41:03;102351.59;;;11.39;100.00
72438;BME280;60444;43.534;-5.674;2024-03-06T00:43:29;102353.31;;;11.41;100.00
72438;BME280;60444;43.534;-5.674;2024-03-06T00:45:54;102362.91;;;11.53;100.00
72438;BME280;60444;43.534;-5.674;2024-03-06T00:48:21;102355.53;;;11.58;100.00
72438;BME280;60444;43.534;-5.674;2024-03-06T00:50:46;102343.53;;;11.36;100.00
72438;BME280;60444;43.534;-5.674;2024-03-06T00:53:12;102319.03;;;11.40;100.00
72438;BME280;60444;43.534;-5.674;2024-03-06T00:55:38;102335.34;;;11.39;100.00
72438;BME280;60444;43.534;-5.674;2024-03-06T00:58:03;102327.41;;;11.31;100.00
72438;BME280;60444;43.534;-5.674;2024-03-06T01:00:29;102349.75;;;11.39;100.00
72438;BME280;60444;43.534;-5.674;2024-03-06T01:02:55;102347.00;;;11.41;100.00
72438;BME280;60444;43.534;-5.674;2024-03-06T01:05:21;102351.53;;;11.40;100.00
72438;BME280;60444;43.534;-5.674;2024-03-06T01:07:46;102341.47;;;11.45;100.00
72438;BME280;60444;43.534;-5.674;2024-03-06T01:10:12;102326.56;;;11.29;100.00
72438;BME280;60444;43.534;-5.674;2024-03-06T01:12:38;102346.13;;;11.40;100.00
72438;BME280;60444;43.534;-5.674;2024-03-06T01:15:04;102331.84;;;11.34;100.00
72438;BME280;60444;43.534;-5.674;2024-03-06T01:17:30;102311.38;;;11.24;100.00
72438;BME280;60444;43.534;-5.674;2024-03-06T01:19:55;102321.06;;;11.32;100.00
72438;BME280;60444;43.534;-5.674;2024-03-06T01:22:21;102319.09;;;11.39;100.00
72438;BME280;60444;43.534;-5.674;2024-03-06T01:24:46;102317.53;;;11.29;100.00
72438;BME280;60444;43.534;-5.674;2024-03-06T01:27:17;102324.34;;;11.43;100.00
72438;BME280;60444;43.534;-5.674;2024-03-06T01:29:43;102306.84;;;11.24;100.00
72438;BME280;60444;43.534;-5.674;2024-03-06T01:32:08;102323.72;;;11.34;100.00
72438;BME280;60444;43.534;-5.674;2024-03-06T01:34:35;102314.56;;;11.38;100.00
72438;BME280;60444;43.534;-5.674;2024-03-06T01:37:01;102300.13;;;11.39;100.00
72438;BME280;60444;43.534;-5.674;2024-03-06T01:39:26;102310.63;;;11.49;100.00
72438;BME280;60444;43.534;-5.674;2024-03-06T01:41:52;102306.94;;;11.52;100.00
72438;BME280;60444;43.534;-5.674;2024-03-06T01:44:18;102301.63;;;11.49;100.00
72438;BME280;60444;43.534;-5.674;2024-03-06T01:46:44;102285.53;;;11.43;100.00
72438;BME280;60444;43.534;-5.674;2024-03-06T01:49:11;102275.72;;;11.39;100.00
72438;BME280;60444;43.534;-5.674;2024-03-06T01:51:39;102295.25;;;11.50;100.00
72438;BME280;60444;43.534;-5.674;2024-03-06T01:54:06;102289.81;;;11.52;100.00
72438;BME280;60444;43.534;-5.674;2024-03-06T01:56:34;102281.97;;;11.41;100.00
72438;BME280;60444;43.534;-5.674;2024-03-06T01:59:00;102284.66;;;11.42;100.00
72438;BME280;60444;43.534;-5.674;2024-03-06T02:01:28;102272.25;;;11.34;100.00
72438;BME280;60444;43.534;-5.674;2024-03-06T02:03:54;102252.69;;;11.23;100.00
72438;BME280;60444;43.534;-5.674;2024-03-06T02:06:19;102282.97;;;11.38;100.00
72438;BME280;60444;43.534;-5.674;2024-03-06T02:08:46;102247.28;;;11.23;100.00
72438;BME280;60444;43.534;-5.674;2024-03-06T02:11:12;102269.38;;;11.40;100.00
72438;BME280;60444;43.534;-5.674;2024-03-06T02:13:41;102260.75;;;11.26;100.00
72438;BME280;60444;43.534;-5.674;2024-03-06T02:16:07;102279.31;;;11.39;100.00
72438;BME280;60444;43.534;-5.674;2024-03-06T02:18:33;102271.22;;;11.38;100.00
72438;BME280;60444;43.534;-5.674;2024-03-06T02:21:00;102250.78;;;11.28;100.00
72438;BME280;60444;43.534;-5.674;2024-03-06T02:23:25;102244.78;;;11.17;100.00
72438;BME280;60444;43.534;-5.674;2024-03-06T02:25:51;102253.81;;;11.16;100.00
72438;BME280;60444;43.534;-5.674;2024-03-06T02:28:17;102239.41;;;11.14;100.00
72438;BME280;60444;43.534;-5.674;2024-03-06T02:30:43;102243.72;;;11.22;100.00
72438;BME280;60444;43.534;-5.674;2024-03-06T02:33:09;102232.66;;;10.99;100.00
72438;BME280;60444;43.534;-5.674;2024-03-06T02:35:35;102247.53;;;11.15;100.00
72438;BME280;60444;43.534;-5.674;2024-03-06T02:38:05;102241.91;;;11.21;100.00
72438;BME280;60444;43.534;-5.674;2024-03-06T02:40:31;102244.81;;;11.15;100.00
72438;BME280;60444;43.534;-5.674;2024-03-06T02:42:57;102216.16;;;11.07;100.00
72438;BME280;60444;43.534;-5.674;2024-03-06T02:45:22;102216.94;;;11.12;100.00
72438;BME280;60444;43.534;-5.674;2024-03-06T02:47:53;102202.66;;;11.05;100.00
72438;BME280;60444;43.534;-5.674;2024-03-06T02:50:18;102195.31;;;10.78;100.00
72438;BME280;60444;43.534;-5.674;2024-03-06T02:52:46;102215.16;;;10.79;100.00
72438;BME280;60444;43.534;-5.674;2024-03-06T02:55:12;102204.38;;;10.77;100.00
72438;BME280;60444;43.534;-5.674;2024-03-06T02:57:37;102203.28;;;10.84;100.00
72438;BME280;60444;43.534;-5.674;2024-03-06T03:00:03;102191.50;;;10.85;100.00
72438;BME280;60444;43.534;-5.674;2024-03-06T03:02:29;102218.06;;;11.03;100.00
72438;BME280;60444;43.534;-5.674;2024-03-06T03:04:54;102195.97;;;10.88;100.00
72438;BME280;60444;43.534;-5.674;2024-03-06T03:07:20;102203.94;;;10.92;100.00
72438;BME280;60444;43.534;-5.674;2024-03-06T03:09:46;102165.66;;;10.75;100.00
72438;BME280;60444;43.534;-5.674;2024-03-06T03:12:12;102205.56;;;10.99;100.00
72438;BME280;60444;43.534;-5.674;2024-03-06T03:14:39;102201.06;;;10.98;100.00
72438;BME280;60444;43.534;-5.674;2024-03-06T03:17:06;102198.31;;;11.00;100.00
72438;BME280;60444;43.534;-5.674;2024-03-06T03:19:31;102197.47;;;10.98;100.00
72438;BME280;60444;43.534;-5.674;2024-03-06T03:21:57;102198.84;;;11.12;100.00
72438;BME280;60444;43.534;-5.674;2024-03-06T03:24:24;102203.56;;;11.06;100.00
72438;BME280;60444;43.534;-5.674;2024-03-06T03:26:53;102184.13;;;10.92;100.00
72438;BME280;60444;43.534;-5.674;2024-03-06T03:29:19;102180.56;;;10.90;100.00
72438;BME280;60444;43.534;-5.674;2024-03-06T03:31:46;102174.41;;;10.83;100.00
72438;BME280;60444;43.534;-5.674;2024-03-06T03:34:12;102184.19;;;10.89;100.00
72438;BME280;60444;43.534;-5.674;2024-03-06T03:36:43;102175.31;;;10.84;100.00
72438;BME280;60444;43.534;-5.674;2024-03-06T03:39:12;102171.47;;;10.92;100.00
72438;BME280;60444;43.534;-5.674;2024-03-06T03:41:45;102187.78;;;10.89;100.00
72438;BME280;60444;43.534;-5.674;2024-03-06T03:44:14;102189.44;;;10.95;100.00
72438;BME280;60444;43.534;-5.674;2024-03-06T03:46:41;102193.84;;;10.99;100.00
72438;BME280;60444;43.534;-5.674;2024-03-06T03:49:07;102158.03;;;10.89;100.00
72438;BME280;60444;43.534;-5.674;2024-03-06T03:51:34;102174.53;;;10.80;100.00
72438;BME280;60444;43.534;-5.674;2024-03-06T03:53:59;102174.16;;;10.92;100.00
72438;BME280;60444;43.534;-5.674;2024-03-06T03:56:25;102163.78;;;10.77;100.00
72438;BME280;60444;43.534;-5.674;2024-03-06T03:58:51;102188.28;;;11.03;100.00
72438;BME280;60444;43.534;-5.674;2024-03-06T04:01:16;102195.72;;;10.97;100.00
72438;BME280;60444;43.534;-5.674;2024-03-06T04:03:42;102176.22;;;10.84;100.00
72438;BME280;60444;43.534;-5.674;2024-03-06T04:06:10;102169.91;;;10.84;100.00
72438;BME280;60444;43.534;-5.674;2024-03-06T04:08:36;102195.75;;;10.95;100.00
72438;BME280;60444;43.534;-5.674;2024-03-06T04:11:03;102183.31;;;10.88;100.00
72438;BME280;60444;43.534;-5.674;2024-03-06T04:13:29;102161.00;;;10.80;100.00
72438;BME280;60444;43.534;-5.674;2024-03-06T04:15:54;102174.41;;;10.85;100.00
72438;BME280;60444;43.534;-5.674;2024-03-06T04:18:21;102165.59;;;10.77;100.00
72438;BME280;60444;43.534;-5.674;2024-03-06T04:20:46;102195.72;;;10.97;100.00
72438;BME280;60444;43.534;-5.674;2024-03-06T04:23:12;102192.91;;;11.00;100.00
72438;BME280;60444;43.534;-5.674;2024-03-06T04:25:37;102151.97;;;10.80;100.00
72438;BME280;60444;43.534;-5.674;2024-03-06T04:28:05;102156.63;;;10.75;100.00
72438;BME280;60444;43.534;-5.674;2024-03-06T04:30:33;102145.97;;;10.70;100.00
72438;BME280;60444;43.534;-5.674;2024-03-06T04:32:58;102135.44;;;10.58;100.00
72438;BME280;60444;43.534;-5.674;2024-03-06T04:35:24;102177.13;;;10.85;100.00
72438;BME280;60444;43.534;-5.674;2024-03-06T04:37:50;102181.47;;;10.90;100.00
72438;BME280;60444;43.534;-5.674;2024-03-06T04:40:15;102151.28;;;10.73;100.00
72438;BME280;60444;43.534;-5.674;2024-03-06T04:42:46;102167.09;;;10.87;100.00
72438;BME280;60444;43.534;-5.674;2024-03-06T04:45:14;102157.22;;;10.86;100.00
72438;BME280;60444;43.534;-5.674;2024-03-06T04:47:41;102184.13;;;10.92;100.00
72438;BME280;60444;43.534;-5.674;2024-03-06T04:50:10;102168.16;;;10.83;100.00
72438;BME280;60444;43.534;-5.674;2024-03-06T04:52:38;102171.50;;;10.91;100.00
72438;BME280;60444;43.534;-5.674;2024-03-06T04:55:04;102177.88;;;10.90;100.00
72438;BME280;60444;43.534;-5.674;2024-03-06T04:57:30;102161.00;;;10.80;100.00
72438;BME280;60444;43.534;-5.674;2024-03-06T04:59:55;102160.59;;;10.94;100.00
72438;BME280;60444;43.534;-5.674;2024-03-06T05:02:21;102155.00;;;11.00;100.00
72438;BME280;60444;43.534;-5.674;2024-03-06T05:04:46;102129.47;;;10.79;100.00
72438;BME280;60444;43.534;-5.674;2024-03-06T05:07:12;102138.31;;;10.84;100.00
72438;BME280;60444;43.534;-5.674;2024-03-06T05:09:38;102158.06;;;10.88;100.00
72438;BME280;60444;43.534;-5.674;2024-03-06T05:12:07;102137.75;;;10.73;100.00
72438;BME280;60444;43.534;-5.674;2024-03-06T05:14:32;102129.53;;;10.76;100.00
72438;BME280;60444;43.534;-5.674;2024-03-06T05:16:58;102125.84;;;10.79;100.00
72438;BME280;60444;43.534;-5.674;2024-03-06T05:19:23;102108.03;;;10.72;100.00
72438;BME280;60444;43.534;-5.674;2024-03-06T05:21:55;102137.47;;;10.82;100.00
72438;BME280;60444;43.534;-5.674;2024-03-06T05:24:21;102125.00;;;10.77;100.00
72438;BME280;60444;43.534;-5.674;2024-03-06T05:26:47;102155.38;;;10.88;100.00
72438;BME280;60444;43.534;-5.674;2024-03-06T05:29:12;102132.47;;;10.69;100.00
72438;BME280;60444;43.534;-5.674;2024-03-06T05:31:37;102127.19;;;10.64;100.00
72438;BME280;60444;43.534;-5.674;2024-03-06T05:34:03;102132.38;;;10.72;100.00
72438;BME280;60444;43.534;-5.674;2024-03-06T05:36:30;102139.38;;;10.79;100.00
72438;BME280;60444;43.534;-5.674;2024-03-06T05:38:56;102151.97;;;10.80;100.00
72438;BME280;60444;43.534;-5.674;2024-03-06T05:41:21;102156.25;;;10.88;100.00
72438;BME280;60444;43.534;-5.674;2024-03-06T05:43:47;102155.25;;;10.91;100.00
72438;BME280;60444;43.534;-5.674;2024-03-06T05:46:13;102140.03;;;10.88;100.00
72438;BME280;60444;43.534;-5.674;2024-03-06T05:48:38;102147.06;;;10.94;100.00
72438;BME280;60444;43.534;-5.674;2024-03-06T05:51:05;102151.44;;;10.98;100.00
72438;BME280;60444;43.534;-5.674;2024-03-06T05:53:36;102149.69;;;10.97;100.00
72438;BME280;60444;43.534;-5.674;2024-03-06T05:56:04;102157.00;;;10.93;100.00
72438;BME280;60444;43.534;-5.674;2024-03-06T05:58:31;102129.78;;;10.69;100.00
72438;BME280;60444;43.534;-5.674;2024-03-06T06:00:56;102135.66;;;10.83;100.00
72438;BME280;60444;43.534;-5.674;2024-03-06T06:03:22;102150.91;;;10.85;100.00
72438;BME280;60444;43.534;-5.674;2024-03-06T06:05:47;102163.38;;;10.91;100.00
72438;BME280;60444;43.534;-5.674;2024-03-06T06:08:13;102174.25;;;10.89;100.00
72438;BME280;60444;43.534;-5.674;2024-03-06T06:10:38;102137.53;;;10.81;100.00
72438;BME280;60444;43.534;-5.674;2024-03-06T06:13:04;102162.47;;;10.92;100.00
72438;BME280;60444;43.534;-5.674;2024-03-06T06:15:30;102139.38;;;10.79;100.00
72438;BME280;60444;43.534;-5.674;2024-03-06T06:17:56;102151.44;;;10.99;100.00
72438;BME280;60444;43.534;-5.674;2024-03-06T06:20:21;102131.78;;;10.91;100.00
72438;BME280;60444;43.534;-5.674;2024-03-06T06:22:47;102140.88;;;10.89;100.00
72438;BME280;60444;43.534;-5.674;2024-03-06T06:25:12;102160.25;;;11.06;100.00
72438;BME280;60444;43.534;-5.674;2024-03-06T06:27:38;102161.22;;;11.03;100.00
72438;BME280;60444;43.534;-5.674;2024-03-06T06:30:04;102153.09;;;11.03;100.00
72438;BME280;60444;43.534;-5.674;2024-03-06T06:32:30;102158.66;;;10.99;100.00
72438;BME280;60444;43.534;-5.674;2024-03-06T06:34:56;102128.25;;;10.89;100.00
72438;BME280;60444;43.534;-5.674;2024-03-06T06:37:21;102134.78;;;10.82;100.00
72438;BME280;60444;43.534;-5.674;2024-03-06T06:39:47;102156.78;;;11.01;100.00
72438;BME280;60444;43.534;-5.674;2024-03-06T06:42:13;102141.94;;;10.85;100.00
72438;BME280;60444;43.534;-5.674;2024-03-06T06:44:39;102140.97;;;10.86;100.00
72438;BME280;60444;43.534;-5.674;2024-03-06T06:47:04;102124.00;;;10.81;100.00
72438;BME280;60444;43.534;-5.674;2024-03-06T06:49:30;102154.25;;;10.95;100.00
72438;BME280;60444;43.534;-5.674;2024-03-06T06:51:55;102159.56;;;10.98;100.00
72438;BME280;60444;43.534;-5.674;2024-03-06T06:54:21;102138.44;;;10.80;100.00
72438;BME280;60444;43.534;-5.674;2024-03-06T06:56:46;102144.59;;;10.86;100.00
72438;BME280;60444;43.534;-5.674;2024-03-06T06:59:12;102143.78;;;10.83;100.00
72438;BME280;60444;43.534;-5.674;2024-03-06T07:01:39;102136.47;;;10.86;100.00
72438;BME280;60444;43.534;-5.674;2024-03-06T07:04:06;102142.69;;;10.90;100.00
72438;BME280;60444;43.534;-5.674;2024-03-06T07:06:31;102137.22;;;10.91;100.00
72438;BME280;60444;43.534;-5.674;2024-03-06T07:08:57;102139.88;;;10.93;100.00
72438;BME280;60444;43.534;-5.674;2024-03-06T07:11:22;102128.41;;;10.85;100.00
72438;BME280;60444;43.534;-5.674;2024-03-06T07:13:49;102130.31;;;10.80;100.00
72438;BME280;60444;43.534;-5.674;2024-03-06T07:16:14;102127.44;;;10.86;100.00
72438;BME280;60444;43.534;-5.674;2024-03-06T07:18:40;102130.00;;;10.92;100.00
72438;BME280;60444;43.534;-5.674;2024-03-06T07:21:05;102118.44;;;10.85;100.00
72438;BME280;60444;43.534;-5.674;2024-03-06T07:23:31;102139.59;;;11.02;100.00
72438;BME280;60444;43.534;-5.674;2024-03-06T07:25:57;102101.41;;;10.82;100.00
72438;BME280;60444;43.534;-5.674;2024-03-06T07:28:24;102108.66;;;10.80;100.00
72438;BME280;60444;43.534;-5.674;2024-03-06T07:30:51;102115.66;;;10.87;100.00
72438;BME280;60444;43.534;-5.674;2024-03-06T07:33:16;102102.19;;;10.85;100.00
72438;BME280;60444;43.534;-5.674;2024-03-06T07:35:42;102108.41;;;10.89;100.00
72438;BME280;60444;43.534;-5.674;2024-03-06T07:38:07;102103.19;;;10.83;100.00
72438;BME280;60444;43.534;-5.674;2024-03-06T07:40:33;102110.31;;;10.85;100.00
72438;BME280;60444;43.534;-5.674;2024-03-06T07:42:59;102104.19;;;10.79;100.00
72438;BME280;60444;43.534;-5.674;2024-03-06T07:45:25;102131.06;;;10.86;100.00
72438;BME280;60444;43.534;-5.674;2024-03-06T07:47:51;102122.88;;;10.88;100.00
72438;BME280;60444;43.534;-5.674;2024-03-06T07:50:17;102141.59;;;10.95;100.00
72438;BME280;60444;43.534;-5.674;2024-03-06T07:52:48;102120.28;;;10.83;100.00
72438;BME280;60444;43.534;-5.674;2024-03-06T07:55:14;102138.22;;;10.87;100.00
72438;BME280;60444;43.534;-5.674;2024-03-06T07:57:39;102141.59;;;10.95;100.00
72438;BME280;60444;43.534;-5.674;2024-03-06T08:00:08;102129.09;;;10.91;100.00
72438;BME280;60444;43.534;-5.674;2024-03-06T08:02:40;102137.69;;;11.05;100.00
72438;BME280;60444;43.534;-5.674;2024-03-06T08:05:12;102135.03;;;11.04;100.00
72438;BME280;60444;43.534;-5.674;2024-03-06T08:07:39;102119.06;;;10.95;100.00
72438;BME280;60444;43.534;-5.674;2024-03-06T08:10:10;102126.16;;;10.99;100.00
72438;BME280;60444;43.534;-5.674;2024-03-06T08:12:40;102130.56;;;11.03;100.00
72438;BME280;60444;43.534;-5.674;2024-03-06T08:15:07;102140.28;;;11.10;100.00
72438;BME280;60444;43.534;-5.674;2024-03-06T08:17:35;102139.91;;;11.22;100.00
72438;BME280;60444;43.534;-5.674;2024-03-06T08:20:04;102118.44;;;11.14;100.00
72438;BME280;60444;43.534;-5.674;2024-03-06T08:22:42;102131.66;;;11.25;100.00
72438;BME280;60444;43.534;-5.674;2024-03-06T08:25:09;102132.38;;;11.31;100.00
72438;BME280;60444;43.534;-5.674;2024-03-06T08:27:36;102137.84;;;11.30;100.00
72438;BME280;60444;43.534;-5.674;2024-03-06T08:30:06;102139.72;;;11.28;100.00
72438;BME280;60444;43.534;-5.674;2024-03-06T08:32:34;102140.72;;;11.24;100.00
72438;BME280;60444;43.534;-5.674;2024-03-06T08:35:10;102133.63;;;11.20;100.00
72438;BME280;60444;43.534;-5.674;2024-03-06T08:37:40;102132.56;;;11.25;100.00
72438;BME280;60444;43.534;-5.674;2024-03-06T08:40:06;102129.13;;;11.20;100.00
72438;BME280;60444;43.534;-5.674;2024-03-06T08:42:43;102133.53;;;11.23;100.00
72438;BME280;60444;43.534;-5.674;2024-03-06T08:45:10;102131.03;;;11.17;100.00
72438;BME280;60444;43.534;-5.674;2024-03-06T08:47:36;102128.09;;;11.24;100.00
72438;BME280;60444;43.534;-5.674;2024-03-06T08:50:02;102088.88;;;11.08;100.00
72438;BME280;60444;43.534;-5.674;2024-03-06T08:52:29;102115.41;;;11.26;100.00
72438;BME280;60444;43.534;-5.674;2024-03-06T08:54:56;102109.22;;;11.21;100.00
72438;BME280;60444;43.534;-5.674;2024-03-06T08:57:22;102098.31;;;11.23;100.00
72438;BME280;60444;43.534;-5.674;2024-03-06T08:59:48;102091.16;;;11.22;100.00
72438;BME280;60444;43.534;-5.674;2024-03-06T09:02:18;102111.56;;;11.33;100.00
72438;BME280;60444;43.534;-5.674;2024-03-06T09:04:45;102102.47;;;11.34;100.00
72438;BME280;60444;43.534;-5.674;2024-03-06T09:07:11;102115.06;;;11.35;100.00
72438;BME280;60444;43.534;-5.674;2024-03-06T09:09:37;102120.31;;;11.41;100.00
72438;BME280;60444;43.534;-5.674;2024-03-06T09:12:07;102101.28;;;11.43;100.00
72438;BME280;60444;43.534;-5.674;2024-03-06T09:14:36;102106.41;;;11.52;100.00
72438;BME280;60444;43.534;-5.674;2024-03-06T09:17:01;102102.91;;;11.48;100.00
72438;BME280;60444;43.534;-5.674;2024-03-06T09:19:27;102105.56;;;11.52;100.00
72438;BME280;60444;43.534;-5.674;2024-03-06T09:21:53;102108.09;;;11.56;100.00
72438;BME280;60444;43.534;-5.674;2024-03-06T09:24:20;102084.75;;;11.52;100.00
72438;BME280;60444;43.534;-5.674;2024-03-06T09:26:47;102102.69;;;11.56;100.00
72438;BME280;60444;43.534;-5.674;2024-03-06T09:29:13;102082.88;;;11.54;100.00
72438;BME280;60444;43.534;-5.674;2024-03-06T09:31:38;102090.81;;;11.60;100.00
72438;BME280;60444;43.534;-5.674;2024-03-06T09:34:04;102074.91;;;11.49;100.00
72438;BME280;60444;43.534;-5.674;2024-03-06T09:36:29;102080.09;;;11.56;100.00
72438;BME280;60444;43.534;-5.674;2024-03-06T09:38:55;102079.25;;;11.55;100.00
72438;BME280;60444;43.534;-5.674;2024-03-06T09:41:24;102076.31;;;11.61;100.00
72438;BME280;60444;43.534;-5.674;2024-03-06T09:43:50;102066.63;;;11.54;100.00
72438;BME280;60444;43.534;-5.674;2024-03-06T09:46:17;102078.94;;;11.64;100.00
72438;BME280;60444;43.534;-5.674;2024-03-06T09:48:47;102043.25;;;11.50;100.00
72438;BME280;60444;43.534;-5.674;2024-03-06T09:51:14;102063.56;;;11.66;100.00
72438;BME280;60444;43.534;-5.674;2024-03-06T09:53:41;102070.56;;;11.72;100.00
72438;BME280;60444;43.534;-5.674;2024-03-06T09:56:09;102049.03;;;11.67;100.00
72438;BME280;60444;43.534;-5.674;2024-03-06T09:58:37;102022.47;;;11.50;100.00
72438;BME280;60444;43.534;-5.674;2024-03-06T10:01:06;102049.88;;;11.69;100.00
72438;BME280;60444;43.534;-5.674;2024-03-06T10:03:33;102051.59;;;11.72;100.00
72438;BME280;60444;43.534;-5.674;2024-03-06T10:05:59;102024.75;;;11.63;100.00
72438;BME280;60444;43.534;-5.674;2024-03-06T10:08:25;102044.28;;;11.75;100.00
72438;BME280;60444;43.534;-5.674;2024-03-06T10:10:52;102041.38;;;11.80;100.00
72438;BME280;60444;43.534;-5.674;2024-03-06T10:13:17;102046.50;;;11.89;100.00
72438;BME280;60444;43.534;-5.674;2024-03-06T10:16:04;102061.47;;;11.99;100.00
72438;BME280;60444;43.534;-5.674;2024-03-06T10:18:34;102038.50;;;11.84;100.00
72438;BME280;60444;43.534;-5.674;2024-03-06T10:20:59;102057.78;;;12.01;100.00
72438;BME280;60444;43.534;-5.674;2024-03-06T10:23:26;102054.03;;;12.05;100.00
72438;BME280;60444;43.534;-5.674;2024-03-06T10:25:54;102058.38;;;12.11;100.00
72438;BME280;60444;43.534;-5.674;2024-03-06T10:28:21;102053.91;;;12.08;100.00
72438;BME280;60444;43.534;-5.674;2024-03-06T10:30:51;102057.25;;;12.16;100.00
72438;BME280;60444;43.534;-5.674;2024-03-06T10:33:18;102058.88;;;12.22;100.00
72438;BME280;60444;43.534;-5.674;2024-03-06T10:35:45;102020.59;;;12.05;100.00
72438;BME280;60444;43.534;-5.674;2024-03-06T10:38:14;102039.81;;;12.23;100.00
72438;BME280;60444;43.534;-5.674;2024-03-06T10:40:41;102027.97;;;12.26;100.00
72438;BME280;60444;43.534;-5.674;2024-03-06T10:43:08;102037.69;;;12.33;100.00
72438;BME280;60444;43.534;-5.674;2024-03-06T10:45:50;102032.28;;;12.31;100.00
72438;BME280;60444;43.534;-5.674;2024-03-06T10:48:18;102029.22;;;12.40;100.00
72438;BME280;60444;43.534;-5.674;2024-03-06T10:50:45;102031.59;;;12.49;100.00
72438;BME280;60444;43.534;-5.674;2024-03-06T10:53:15;102011.75;;;12.47;100.00
72438;BME280;60444;43.534;-5.674;2024-03-06T10:55:43;102025.75;;;12.60;100.00
72438;BME280;60444;43.534;-5.674;2024-03-06T10:58:12;101990.06;;;12.47;100.00
72438;BME280;60444;43.534;-5.674;2024-03-06T11:00:44;102001.31;;;12.62;100.00
72438;BME280;60444;43.534;-5.674;2024-03-06T11:03:11;101996.72;;;12.62;100.00
72438;BME280;60444;43.534;-5.674;2024-03-06T11:05:38;101976.75;;;12.65;100.00
72438;BME280;60444;43.534;-5.674;2024-03-06T11:08:15;101996.84;;;12.82;100.00
72438;BME280;60444;43.534;-5.674;2024-03-06T11:10:42;101985.97;;;12.82;100.00
72438;BME280;60444;43.534;-5.674;2024-03-06T11:15:43;101992.44;;;13.03;100.00
72438;BME280;60444;43.534;-5.674;2024-03-06T11:21:44;101985.81;;;13.10;100.00
72438;BME280;60444;43.534;-5.674;2024-03-06T11:24:12;101977.78;;;13.07;100.00
72438;BME280;60444;43.534;-5.674;2024-03-06T11:29:09;101961.50;;;13.07;100.00
72438;BME280;60444;43.534;-5.674;2024-03-06T11:31:35;101941.94;;;12.97;100.00
72438;BME280;60444;43.534;-5.674;2024-03-06T11:34:04;101967.78;;;13.07;100.00
72438;BME280;60444;43.534;-5.674;2024-03-06T11:36:30;101957.81;;;13.08;100.00
72438;BME280;60444;43.534;-5.674;2024-03-06T11:38:56;101955.31;;;13.02;100.00
72438;BME280;60444;43.534;-5.674;2024-03-06T11:41:24;101947.03;;;13.06;100.00
72438;BME280;60444;43.534;-5.674;2024-03-06T11:43:53;101949.81;;;13.05;100.00
72438;BME280;60444;43.534;-5.674;2024-03-06T11:46:21;101917.94;;;12.87;100.00
72438;BME280;60444;43.534;-5.674;2024-03-06T11:48:54;101947.91;;;13.07;100.00
72438;BME280;60444;43.534;-5.674;2024-03-06T11:51:21;101943.41;;;13.06;100.00
72438;BME280;60444;43.534;-5.674;2024-03-06T11:53:52;101935.25;;;13.06;100.00
72438;BME280;60444;43.534;-5.674;2024-03-06T11:56:19;101913.06;;;12.95;100.00
72438;BME280;60444;43.534;-5.674;2024-03-06T11:58:46;101931.63;;;13.07;100.00
72438;BME280;60444;43.534;-5.674;2024-03-06T12:01:12;101908.31;;;13.00;100.00
72438;BME280;60444;43.534;-5.674;2024-03-06T12:03:39;101917.34;;;13.00;100.00
72438;BME280;60444;43.534;-5.674;2024-03-06T12:06:05;101894.34;;;12.87;100.00
72438;BME280;60444;43.534;-5.674;2024-03-06T12:08:33;101902.94;;;12.98;100.00
72438;BME280;60444;43.534;-5.674;2024-03-06T12:11:02;101905.59;;;13.00;100.00
72438;BME280;60444;43.534;-5.674;2024-03-06T12:13:29;101910.69;;;13.09;100.00
72438;BME280;60444;43.534;-5.674;2024-03-06T12:15:55;101890.59;;;13.13;100.00
72438;BME280;60444;43.534;-5.674;2024-03-06T12:18:20;101897.81;;;13.14;100.00
72438;BME280;60444;43.534;-5.674;2024-03-06T12:20:46;101866.53;;;13.04;100.00
72438;BME280;60444;43.534;-5.674;2024-03-06T12:23:22;101886.34;;;13.27;100.00
72438;BME280;60444;43.534;-5.674;2024-03-06T12:26:11;101876.16;;;13.32;100.00
72438;BME280;60444;43.534;-5.674;2024-03-06T12:28:38;101851.22;;;13.23;100.00
72438;BME280;60444;43.534;-5.674;2024-03-06T12:31:05;101868.56;;;13.40;100.00
72438;BME280;60444;43.534;-5.674;2024-03-06T12:33:34;101841.88;;;13.30;100.00
72438;BME280;60444;43.534;-5.674;2024-03-06T12:36:05;101866.59;;;13.44;100.00
72438;BME280;60444;43.534;-5.674;2024-03-06T12:38:32;101860.19;;;13.45;100.00